createdAt,value
2022-11-01T00:02:08.329Z,82.40
2022-11-01T00:04:35.500Z,82.50
2022-11-01T00:07:02.952Z,82.70
2022-11-01T00:09:29.898Z,82.70
2022-11-01T00:11:56.929Z,82.80
2022-11-01T00:14:23.961Z,82.80
2022-11-01T00:16:51.286Z,82.60
2022-11-01T00:19:18.405Z,82.40
2022-11-01T00:21:45.679Z,82.70
2022-11-01T00:24:12.707Z,83.00
2022-11-01T00:26:39.740Z,83.30
2022-11-01T00:29:06.741Z,83.50
2022-11-01T00:31:33.992Z,83.70
2022-11-01T00:34:03.884Z,83.60
2022-11-01T00:36:31.199Z,83.80
2022-11-01T00:38:58.267Z,84.00
2022-11-01T00:41:26.145Z,84.00
2022-11-01T00:43:53.260Z,84.00
2022-11-01T00:46:20.189Z,84.30
2022-11-01T00:48:47.186Z,84.60
2022-11-01T00:51:14.168Z,84.60
2022-11-01T00:53:41.225Z,84.70
2022-11-01T00:56:08.529Z,84.90
2022-11-01T00:58:35.600Z,85.00
2022-11-01T01:01:02.759Z,84.90
2022-11-01T01:03:29.837Z,84.70
2022-11-01T01:05:56.744Z,84.60
2022-11-01T01:08:24.385Z,84.70
2022-11-01T01:10:51.641Z,84.90
2022-11-01T01:13:19.164Z,85.20
2022-11-01T01:15:46.187Z,85.40
2022-11-01T01:18:13.608Z,85.60
2022-11-01T01:20:40.622Z,85.40
2022-11-01T01:23:07.590Z,85.20
2022-11-01T01:25:35.050Z,85.20
2022-11-01T01:28:02.713Z,85.40
2022-11-01T01:30:29.953Z,85.50
2022-11-01T01:32:56.914Z,85.80
2022-11-01T01:35:23.869Z,86.00
2022-11-01T01:37:50.813Z,86.20
2022-11-01T01:40:17.748Z,86.30
2022-11-01T01:42:44.793Z,86.60
2022-11-01T01:45:35.564Z,86.80
2022-11-01T01:48:17.214Z,86.70
2022-11-01T01:50:49.110Z,86.70
2022-11-01T01:53:41.055Z,86.90
2022-11-01T01:56:12.901Z,87.00
2022-11-01T01:58:43.772Z,87.00
2022-11-01T02:01:11.247Z,87.00
2022-11-01T02:03:40.356Z,87.20
2022-11-01T02:06:14.770Z,87.30
2022-11-01T02:09:08.395Z,87.40
2022-11-01T02:11:36.357Z,87.70
2022-11-01T02:14:04.577Z,88.10
2022-11-01T02:16:45.164Z,88.70
2022-11-01T02:19:49.793Z,88.90
2022-11-01T02:22:19.904Z,89.10
2022-11-01T02:25:21.395Z,89.00
2022-11-01T02:27:54.484Z,88.70
2022-11-01T02:30:21.702Z,87.70
2022-11-01T02:32:51.512Z,86.30
2022-11-01T02:35:26.174Z,86.40
2022-11-01T02:38:34.642Z,86.60
2022-11-01T02:41:17.933Z,86.80
2022-11-01T02:43:52.853Z,86.90
2022-11-01T02:46:40.281Z,87.00
2022-11-01T02:49:10.083Z,87.10
2022-11-01T02:51:38.834Z,87.30
2022-11-01T02:54:16.314Z,87.40
2022-11-01T02:56:44.147Z,87.60
2022-11-01T02:59:18.493Z,87.50
2022-11-01T03:02:09.497Z,87.70
2022-11-01T03:04:37.162Z,87.80
2022-11-01T03:07:08.940Z,87.80
2022-11-01T03:09:36.568Z,88.10
2022-11-01T03:12:08.099Z,88.20
2022-11-01T03:14:54.747Z,88.30
2022-11-01T03:17:48.108Z,88.40
2022-11-01T03:20:49.450Z,88.40
2022-11-01T03:23:38.656Z,88.40
2022-11-01T03:26:12.071Z,88.50
2022-11-01T03:28:44.893Z,88.50
2022-11-01T03:31:16.101Z,88.60
2022-11-01T03:33:47.858Z,88.50
2022-11-01T03:36:18.334Z,88.50
2022-11-01T03:39:08.745Z,88.60
2022-11-01T03:41:41.366Z,88.70
2022-11-01T03:44:11.395Z,88.70
2022-11-01T03:46:38.748Z,88.90
2022-11-01T03:49:05.676Z,89.10
2022-11-01T03:51:33.053Z,89.30
2022-11-01T03:54:00.081Z,89.50
2022-11-01T03:56:27.115Z,89.60
2022-11-01T03:58:54.088Z,89.80
2022-11-01T04:01:21.219Z,89.90
2022-11-01T04:03:48.215Z,90.00
2022-11-01T04:06:15.421Z,90.40
2022-11-01T04:08:42.574Z,90.10
2022-11-01T04:11:09.562Z,90.10
2022-11-01T04:13:36.666Z,90.20
2022-11-01T04:16:22.184Z,90.20
2022-11-01T04:19:07.633Z,90.30
2022-11-01T04:21:34.996Z,90.30
2022-11-01T04:24:01.902Z,90.40
2022-11-01T04:26:28.844Z,90.40
2022-11-01T04:28:58.487Z,90.40
2022-11-01T04:31:27.689Z,90.50
2022-11-01T04:33:55.941Z,90.50
2022-11-01T04:36:23.713Z,90.60
2022-11-01T04:38:58.198Z,90.60
2022-11-01T04:41:27.167Z,90.70
2022-11-01T04:43:56.332Z,90.60
2022-11-01T04:46:23.620Z,90.70
2022-11-01T04:48:50.585Z,90.80
2022-11-01T04:51:17.533Z,90.80
2022-11-01T04:53:44.474Z,90.80
2022-11-01T04:56:13.843Z,90.80
2022-11-01T04:58:44.943Z,90.90
2022-11-01T05:01:14.539Z,90.90
2022-11-01T05:03:42.243Z,90.90
2022-11-01T05:06:09.375Z,90.90
2022-11-01T05:08:36.329Z,90.90
2022-11-01T05:11:03.436Z,90.90
2022-11-01T05:13:30.411Z,90.90
2022-11-01T05:18:44.409Z,91.00
2022-11-01T05:21:12.105Z,91.00
2022-11-01T05:23:39.084Z,91.00
2022-11-01T05:26:06.123Z,91.10
2022-11-01T05:28:33.138Z,91.10
2022-11-01T05:31:00.311Z,91.20
2022-11-01T05:33:27.315Z,91.10
2022-11-01T05:35:54.418Z,91.10
2022-11-01T05:38:21.408Z,91.10
2022-11-01T05:40:48.394Z,91.00
2022-11-01T05:43:15.409Z,91.00
2022-11-01T05:45:42.588Z,91.10
2022-11-01T05:48:09.592Z,91.00
2022-11-01T05:50:36.519Z,91.10
2022-11-01T05:53:07.770Z,91.10
2022-11-01T05:55:35.593Z,91.30
2022-11-01T05:58:03.072Z,91.30
2022-11-01T06:00:30.106Z,91.30
2022-11-01T06:03:00.852Z,91.30
2022-11-01T06:05:29.125Z,91.30
2022-11-01T06:07:56.365Z,91.40
2022-11-01T06:10:23.440Z,91.40
2022-11-01T06:12:50.442Z,91.60
2022-11-01T06:15:18.033Z,91.60
2022-11-01T06:17:45.021Z,91.60
2022-11-01T06:20:12.444Z,91.60
2022-11-01T06:22:39.988Z,91.70
2022-11-01T06:25:08.240Z,91.60
2022-11-01T06:27:35.400Z,91.50
2022-11-01T06:30:02.502Z,91.50
2022-11-01T06:32:30.239Z,91.50
2022-11-01T06:34:57.177Z,91.60
2022-11-01T06:37:24.129Z,91.60
2022-11-01T06:39:51.248Z,91.60
2022-11-01T06:42:18.200Z,91.70
2022-11-01T06:44:45.106Z,91.70
2022-11-01T06:47:16.823Z,91.60
2022-11-01T06:49:45.714Z,91.60
2022-11-01T06:52:12.615Z,91.70
2022-11-01T06:54:39.517Z,91.70
2022-11-01T06:57:06.544Z,91.70
2022-11-01T06:59:34.414Z,91.70
2022-11-01T07:02:01.508Z,91.70
2022-11-01T07:04:29.751Z,91.70
2022-11-01T07:06:56.780Z,91.70
2022-11-01T07:09:23.780Z,91.70
2022-11-01T07:11:50.723Z,91.80
2022-11-01T07:14:17.679Z,91.90
2022-11-01T07:16:44.666Z,91.90
2022-11-01T07:19:12.078Z,92.00
2022-11-01T07:21:39.079Z,92.00
2022-11-01T07:24:06.282Z,92.00
2022-11-01T07:26:33.269Z,92.00
2022-11-01T07:29:00.204Z,92.00
2022-11-01T07:31:27.349Z,91.90
2022-11-01T07:33:54.350Z,91.80
2022-11-01T07:36:21.284Z,91.70
2022-11-01T07:38:48.309Z,91.60
2022-11-01T07:41:16.611Z,91.60
2022-11-01T07:43:43.584Z,91.60
2022-11-01T07:46:10.794Z,91.60
2022-11-01T07:48:37.823Z,91.60
2022-11-01T07:51:06.172Z,91.60
2022-11-01T07:53:34.011Z,91.50
2022-11-01T07:56:02.119Z,91.50
2022-11-01T07:58:29.430Z,91.40
2022-11-01T08:00:57.637Z,91.50
2022-11-01T08:03:25.687Z,91.60
2022-11-01T08:05:52.761Z,91.80
2022-11-01T08:08:19.744Z,92.00
2022-11-01T08:10:46.953Z,92.30
2022-11-01T08:13:22.555Z,92.60
2022-11-01T08:15:50.934Z,92.70
2022-11-01T08:18:19.140Z,92.80
2022-11-01T08:20:46.169Z,92.80
2022-11-01T08:23:13.161Z,92.70
2022-11-01T08:25:40.083Z,92.60
2022-11-01T08:28:10.999Z,92.70
2022-11-01T08:30:39.852Z,92.30
2022-11-01T08:33:07.066Z,92.30
2022-11-01T08:35:35.334Z,92.30
2022-11-01T08:38:04.130Z,92.20
2022-11-01T08:40:32.950Z,92.20
2022-11-01T08:43:01.131Z,92.20
2022-11-01T08:45:28.464Z,92.30
2022-11-01T08:47:59.787Z,92.20
2022-11-01T08:50:26.953Z,92.20
2022-11-01T08:52:54.031Z,92.20
2022-11-01T08:55:21.864Z,92.10
2022-11-01T08:57:49.133Z,92.00
2022-11-01T09:00:18.416Z,91.80
2022-11-01T09:02:45.795Z,91.60
2022-11-01T09:05:13.059Z,91.60
2022-11-01T09:07:40.315Z,91.60
2022-11-01T09:10:08.217Z,91.40
2022-11-01T09:12:35.391Z,91.30
2022-11-01T09:15:02.639Z,91.40
2022-11-01T09:17:29.827Z,91.60
2022-11-01T09:19:56.936Z,91.60
2022-11-01T09:22:24.250Z,91.50
2022-11-01T09:24:51.720Z,91.30
2022-11-01T09:27:19.117Z,91.20
2022-11-01T09:29:49.373Z,90.90
2022-11-01T09:32:19.032Z,90.70
2022-11-01T09:34:46.776Z,90.50
2022-11-01T09:37:13.790Z,90.40
2022-11-01T09:39:40.685Z,90.20
2022-11-01T09:42:37.515Z,90.00
2022-11-01T09:45:16.256Z,89.70
2022-11-01T09:47:46.272Z,89.10
2022-11-01T09:50:19.005Z,88.80
2022-11-01T09:52:46.744Z,88.70
2022-11-01T09:55:16.694Z,88.70
2022-11-01T09:58:01.555Z,88.40
2022-11-01T10:00:36.640Z,88.40
2022-11-01T10:03:18.796Z,87.30
2022-11-01T10:06:04.120Z,87.00
2022-11-01T10:08:47.444Z,86.90
2022-11-01T10:11:45.296Z,86.80
2022-11-01T10:14:40.359Z,86.80
2022-11-01T10:17:13.934Z,86.80
2022-11-01T10:19:55.714Z,87.00
2022-11-01T10:22:35.899Z,86.90
2022-11-01T10:25:17.496Z,85.70
2022-11-01T10:27:44.764Z,85.50
2022-11-01T10:30:16.661Z,85.80
2022-11-01T10:33:02.896Z,85.50
2022-11-01T10:35:35.324Z,84.90
2022-11-01T10:38:38.151Z,84.40
2022-11-01T10:41:35.255Z,84.40
2022-11-01T10:44:07.815Z,84.70
2022-11-01T10:46:40.066Z,85.30
2022-11-01T10:49:17.990Z,85.50
2022-11-01T10:51:46.780Z,85.20
2022-11-01T10:54:19.873Z,85.40
2022-11-01T10:56:50.336Z,85.20
2022-11-01T10:59:32.684Z,85.00
2022-11-01T11:02:03.087Z,84.00
2022-11-01T11:04:30.382Z,84.10
2022-11-01T11:06:58.439Z,84.20
2022-11-01T11:09:34.871Z,84.20
2022-11-01T11:12:10.765Z,84.10
2022-11-01T11:14:39.498Z,83.80
2022-11-01T11:17:21.558Z,83.50
2022-11-01T11:19:51.737Z,82.80
2022-11-01T11:22:22.856Z,83.00
2022-11-01T11:24:51.831Z,82.80
2022-11-01T11:27:26.202Z,82.80
2022-11-01T11:30:00.804Z,82.40
2022-11-01T11:32:39.778Z,82.40
2022-11-01T11:35:48.447Z,82.50
2022-11-01T11:38:55.676Z,81.80
2022-11-01T11:41:46.187Z,81.40
2022-11-01T11:45:04.123Z,81.20
2022-11-01T11:47:51.327Z,81.50
2022-11-01T11:51:25.895Z,81.80
2022-11-01T11:57:32.532Z,82.20
2022-11-01T12:00:06.455Z,81.70
2022-11-01T12:02:50.574Z,80.90
2022-11-01T12:05:23.308Z,79.40
2022-11-01T12:07:58.537Z,78.50
2022-11-01T12:10:34.561Z,78.60
2022-11-01T12:13:36.595Z,78.80
2022-11-01T12:19:36.638Z,78.90
2022-11-01T12:22:21.907Z,78.50
2022-11-01T12:25:28.911Z,78.30
2022-11-01T12:28:33.998Z,77.90
2022-11-01T12:31:17.509Z,77.40
2022-11-01T12:34:33.645Z,76.20
2022-11-01T12:37:46.161Z,76.30
2022-11-01T12:40:43.902Z,76.80
2022-11-01T12:44:07.023Z,76.90
2022-11-01T12:47:08.419Z,76.20
2022-11-01T12:50:09.659Z,76.10
2022-11-01T12:53:16.297Z,76.30
2022-11-01T12:55:56.575Z,76.60
2022-11-01T12:59:12.727Z,77.20
2022-11-01T13:02:17.601Z,77.80
2022-11-01T13:05:21.001Z,76.90
2022-11-01T13:08:30.870Z,76.00
2022-11-01T13:11:26.977Z,75.40
2022-11-01T13:15:07.096Z,75.10
2022-11-01T13:18:50.359Z,74.70
2022-11-01T13:21:52.817Z,74.10
2022-11-01T13:25:05.234Z,72.30
2022-11-01T13:28:05.177Z,71.80
2022-11-01T13:31:23.913Z,71.40
2022-11-01T13:34:00.252Z,71.00
2022-11-01T13:37:15.867Z,70.70
2022-11-01T13:43:39.415Z,71.10
2022-11-01T13:47:19.521Z,71.40
2022-11-01T13:50:50.693Z,71.90
2022-11-01T13:53:58.222Z,72.60
2022-11-01T13:57:24.006Z,72.60
2022-11-01T14:01:00.902Z,73.10
2022-11-01T14:03:49.679Z,71.70
2022-11-01T14:07:12.064Z,71.40
2022-11-01T14:10:34.379Z,70.50
2022-11-01T14:13:49.893Z,70.00
2022-11-01T14:19:38.373Z,69.70
2022-11-01T14:23:06.469Z,69.60
2022-11-01T14:25:49.535Z,69.60
2022-11-01T14:28:38.180Z,69.60
2022-11-01T14:31:34.275Z,69.90
2022-11-01T14:34:49.662Z,70.40
2022-11-01T14:37:51.795Z,71.30
2022-11-01T14:41:10.172Z,71.40
2022-11-01T14:44:18.589Z,70.90
2022-11-01T14:46:57.200Z,70.00
2022-11-01T14:49:54.718Z,70.40
2022-11-01T14:52:47.999Z,70.10
2022-11-01T14:55:53.298Z,70.30
2022-11-01T15:01:49.307Z,68.30
2022-11-01T15:08:03.583Z,67.70
2022-11-01T15:10:57.414Z,67.60
2022-11-01T15:14:09.407Z,67.70
2022-11-01T15:16:46.992Z,67.80
2022-11-01T15:19:48.519Z,67.70
2022-11-01T15:23:02.698Z,68.10
2022-11-01T15:29:28.266Z,68.60
2022-11-01T15:35:49.731Z,68.40
2022-11-01T15:39:17.223Z,68.60
2022-11-01T15:42:42.647Z,68.60
2022-11-01T15:45:40.733Z,68.50
2022-11-01T15:48:36.944Z,68.40
2022-11-01T15:51:44.432Z,68.70
2022-11-01T15:54:47.154Z,68.70
2022-11-01T15:58:07.630Z,68.70
2022-11-01T16:01:13.686Z,68.60
2022-11-01T16:03:49.893Z,68.40
2022-11-01T16:06:22.650Z,68.90
2022-11-01T16:09:06.536Z,67.90
2022-11-01T16:11:36.024Z,67.80
2022-11-01T16:14:15.277Z,67.80
2022-11-01T16:17:02.072Z,67.60
2022-11-01T16:19:51.479Z,67.50
2022-11-01T16:22:31.423Z,67.50
2022-11-01T16:25:21.541Z,67.60
2022-11-01T16:27:54.129Z,67.60
2022-11-01T16:30:38.527Z,67.70
2022-11-01T16:33:30.618Z,67.50
2022-11-01T16:36:03.513Z,67.80
2022-11-01T16:38:54.161Z,67.80
2022-11-01T16:41:43.513Z,67.90
2022-11-01T16:44:16.873Z,68.10
2022-11-01T16:46:44.817Z,68.20
2022-11-01T16:49:14.852Z,68.30
2022-11-01T16:51:42.807Z,68.50
2022-11-01T16:54:13.346Z,68.50
2022-11-01T16:57:00.600Z,68.70
2022-11-01T16:59:33.672Z,68.90
2022-11-01T17:02:02.403Z,68.70
2022-11-01T17:04:29.748Z,68.60
2022-11-01T17:07:00.357Z,68.70
2022-11-01T17:09:32.580Z,68.80
2022-11-01T17:11:59.532Z,68.90
2022-11-01T17:14:26.542Z,68.90
2022-11-01T17:16:56.283Z,69.00
2022-11-01T17:19:30.897Z,69.00
2022-11-01T17:22:07.662Z,68.90
2022-11-01T17:24:35.353Z,69.00
2022-11-01T17:27:05.371Z,69.00
2022-11-01T17:29:33.002Z,69.00
2022-11-01T17:32:01.194Z,69.10
2022-11-01T17:34:29.547Z,69.00
2022-11-01T17:36:57.597Z,69.10
2022-11-01T17:39:28.199Z,69.30
2022-11-01T17:41:55.944Z,69.10
2022-11-01T17:44:23.225Z,69.30
2022-11-01T17:46:50.302Z,69.30
2022-11-01T17:49:21.578Z,69.40
2022-11-01T17:51:54.265Z,69.40
2022-11-01T17:54:22.587Z,69.50
2022-11-01T17:56:51.179Z,69.50
2022-11-01T17:59:18.507Z,69.60
2022-11-01T18:01:45.657Z,69.30
2022-11-01T18:04:12.784Z,69.40
2022-11-01T18:06:42.651Z,69.40
2022-11-01T18:09:24.337Z,69.60
2022-11-01T18:11:53.799Z,69.60
2022-11-01T18:14:39.197Z,69.60
2022-11-01T18:17:37.697Z,69.80
2022-11-01T18:20:33.818Z,69.80
2022-11-01T18:23:12.533Z,69.80
2022-11-01T18:25:48.957Z,70.10
2022-11-01T18:28:24.068Z,70.30
2022-11-01T18:31:10.145Z,70.40
2022-11-01T18:33:50.954Z,70.60
2022-11-01T18:36:27.330Z,70.60
2022-11-01T18:39:21.344Z,70.80
2022-11-01T18:41:50.595Z,71.10
2022-11-01T18:44:18.019Z,71.10
2022-11-01T18:47:00.698Z,71.10
2022-11-01T18:49:31.835Z,71.20
2022-11-01T18:52:01.525Z,71.20
2022-11-01T18:54:32.578Z,71.20
2022-11-01T18:57:17.225Z,71.40
2022-11-01T18:59:46.548Z,71.40
2022-11-01T19:02:27.043Z,71.50
2022-11-01T19:05:18.671Z,71.60
2022-11-01T19:08:16.348Z,71.60
2022-11-01T19:10:44.389Z,71.60
2022-11-01T19:13:31.740Z,71.60
2022-11-01T19:16:02.186Z,71.60
2022-11-01T19:18:30.115Z,71.60
2022-11-01T19:20:58.835Z,71.60
2022-11-01T19:23:43.333Z,71.70
2022-11-01T19:26:20.186Z,71.80
2022-11-01T19:28:50.569Z,71.70
2022-11-01T19:31:32.740Z,71.80
2022-11-01T19:34:04.018Z,71.90
2022-11-01T19:39:26.936Z,71.80
2022-11-01T19:42:00.583Z,72.00
2022-11-01T19:44:30.296Z,72.00
2022-11-01T19:47:23.242Z,71.90
2022-11-01T19:49:50.131Z,72.20
2022-11-01T19:52:33.197Z,72.20
2022-11-01T19:55:00.123Z,72.20
2022-11-01T19:57:27.028Z,72.20
2022-11-01T19:59:55.771Z,72.30
2022-11-01T20:02:23.138Z,72.30
2022-11-01T20:04:58.086Z,72.40
2022-11-01T20:07:27.036Z,72.40
2022-11-01T20:09:58.687Z,72.40
2022-11-01T20:12:26.341Z,72.60
2022-11-01T20:14:53.726Z,72.60
2022-11-01T20:17:20.755Z,72.60
2022-11-01T20:19:48.000Z,72.60
2022-11-01T20:22:14.922Z,72.70
2022-11-01T20:24:41.827Z,72.80
2022-11-01T20:27:08.766Z,72.80
2022-11-01T20:29:37.204Z,72.70
2022-11-01T20:32:04.336Z,73.40
2022-11-01T20:34:31.507Z,72.70
2022-11-01T20:37:22.654Z,72.80
2022-11-01T20:39:45.283Z,72.80
2022-11-01T20:42:12.176Z,72.90
2022-11-01T20:44:39.069Z,72.90
2022-11-01T20:47:06.040Z,72.80
2022-11-01T20:49:33.416Z,72.80
2022-11-01T20:52:13.458Z,72.90
2022-11-01T20:54:46.618Z,73.00
2022-11-01T20:57:27.131Z,73.10
2022-11-01T20:59:55.717Z,73.20
2022-11-01T21:02:22.938Z,73.20
2022-11-01T21:05:02.738Z,73.50
2022-11-01T21:07:31.289Z,73.80
2022-11-01T21:09:58.268Z,74.00
2022-11-01T21:12:31.054Z,75.10
2022-11-01T21:14:58.631Z,74.50
2022-11-01T21:17:27.295Z,75.30
2022-11-01T21:19:54.458Z,74.90
2022-11-01T21:22:21.918Z,75.10
2022-11-01T21:24:50.028Z,75.30
2022-11-01T21:27:26.703Z,76.20
2022-11-01T21:30:01.944Z,75.40
2022-11-01T21:32:42.489Z,75.40
2022-11-01T21:35:21.232Z,75.50
2022-11-01T21:37:50.546Z,75.60
2022-11-01T21:40:28.218Z,76.30
2022-11-01T21:42:56.615Z,75.40
2022-11-01T21:45:33.293Z,75.30
2022-11-01T21:48:16.565Z,75.40
2022-11-01T21:50:43.478Z,75.30
2022-11-01T21:53:10.383Z,75.40
2022-11-01T21:55:37.280Z,75.50
2022-11-01T21:58:04.208Z,75.40
2022-11-01T22:00:31.117Z,75.20
2022-11-01T22:02:58.029Z,75.70
2022-11-01T22:05:24.904Z,74.90
2022-11-01T22:07:51.836Z,74.90
2022-11-01T22:10:18.779Z,75.10
2022-11-01T22:12:45.691Z,75.20
2022-11-01T22:15:13.486Z,75.20
2022-11-01T22:17:40.415Z,75.00
2022-11-01T22:20:07.741Z,74.80
2022-11-01T22:22:34.719Z,74.50
2022-11-01T22:25:01.621Z,74.40
2022-11-01T22:27:28.633Z,74.40
2022-11-01T22:29:55.521Z,74.30
2022-11-01T22:32:22.438Z,74.20
2022-11-01T22:34:49.363Z,74.10
2022-11-01T22:37:16.235Z,74.20
2022-11-01T22:39:43.368Z,74.20
2022-11-01T22:42:15.328Z,74.20
2022-11-01T22:44:46.270Z,74.20
2022-11-01T22:47:26.553Z,74.20
2022-11-01T22:49:55.749Z,74.40
2022-11-01T22:52:31.015Z,74.10
2022-11-01T22:55:08.544Z,74.10
2022-11-01T22:57:43.860Z,74.30
2022-11-01T23:00:36.333Z,74.40
2022-11-01T23:03:27.529Z,74.70
2022-11-01T23:05:59.561Z,74.70
2022-11-01T23:08:32.505Z,74.70
2022-11-01T23:10:59.912Z,74.80
2022-11-01T23:13:53.308Z,74.90
2022-11-01T23:16:34.839Z,75.20
2022-11-01T23:19:07.162Z,75.50
2022-11-01T23:21:34.200Z,75.30
2022-11-01T23:24:01.740Z,75.40
2022-11-01T23:26:30.949Z,75.50
2022-11-01T23:29:00.666Z,75.80
2022-11-01T23:31:29.356Z,76.00
2022-11-01T23:33:56.642Z,76.20
2022-11-01T23:36:33.031Z,76.50
2022-11-01T23:39:12.101Z,76.70
2022-11-01T23:41:53.789Z,76.80
2022-11-01T23:44:23.585Z,76.90
2022-11-01T23:46:50.830Z,76.90
2022-11-01T23:49:23.689Z,76.90
2022-11-01T23:51:51.321Z,76.70
2022-11-01T23:54:42.174Z,76.70
2022-11-01T23:57:17.605Z,76.50
2022-11-01T23:59:44.530Z,76.10
